sensor_id;sensor_type;location;lat;lon;timestamp;temperature;humidity
5461;DHT22;2753;49.196;8.286;2023-01-08T00:02:23;8.60;99.90
5461;DHT22;2753;49.196;8.286;2023-01-08T00:04:48;8.60;99.90
5461;DHT22;2753;49.196;8.286;2023-01-08T00:07:14;8.70;99.90
5461;DHT22;2753;49.196;8.286;2023-01-08T00:09:39;8.70;99.90
5461;DHT22;2753;49.196;8.286;2023-01-08T00:12:05;8.70;99.90
5461;DHT22;2753;49.196;8.286;2023-01-08T00:14:31;8.60;99.90
5461;DHT22;2753;49.196;8.286;2023-01-08T00:16:56;8.60;99.90
5461;DHT22;2753;49.196;8.286;2023-01-08T00:19:22;8.50;99.90
5461;DHT22;2753;49.196;8.286;2023-01-08T00:21:48;8.60;99.90
5461;DHT22;2753;49.196;8.286;2023-01-08T00:24:13;8.50;99.90
5461;DHT22;2753;49.196;8.286;2023-01-08T00:26:39;8.60;99.90
5461;DHT22;2753;49.196;8.286;2023-01-08T00:29:05;8.50;99.90
5461;DHT22;2753;49.196;8.286;2023-01-08T00:31:30;8.50;99.90
5461;DHT22;2753;49.196;8.286;2023-01-08T00:33:56;8.50;99.90
5461;DHT22;2753;49.196;8.286;2023-01-08T00:36:22;8.50;99.90
5461;DHT22;2753;49.196;8.286;2023-01-08T00:38:47;8.50;99.90
5461;DHT22;2753;49.196;8.286;2023-01-08T00:41:14;8.50;99.90
5461;DHT22;2753;49.196;8.286;2023-01-08T00:43:40;8.60;99.90
5461;DHT22;2753;49.196;8.286;2023-01-08T00:46:06;8.60;99.90
5461;DHT22;2753;49.196;8.286;2023-01-08T00:48:32;8.50;99.90
5461;DHT22;2753;49.196;8.286;2023-01-08T00:51:02;8.60;99.90
5461;DHT22;2753;49.196;8.286;2023-01-08T00:53:30;8.60;99.90
5461;DHT22;2753;49.196;8.286;2023-01-08T00:56:14;8.60;99.90
5461;DHT22;2753;49.196;8.286;2023-01-08T00:58:40;8.60;99.90
5461;DHT22;2753;49.196;8.286;2023-01-08T01:01:11;8.60;99.90
5461;DHT22;2753;49.196;8.286;2023-01-08T01:03:37;8.60;99.90
5461;DHT22;2753;49.196;8.286;2023-01-08T01:06:04;8.60;99.90
5461;DHT22;2753;49.196;8.286;2023-01-08T01:08:30;8.60;99.90
5461;DHT22;2753;49.196;8.286;2023-01-08T01:10:56;8.60;99.90
5461;DHT22;2753;49.196;8.286;2023-01-08T01:13:21;8.60;99.90
5461;DHT22;2753;49.196;8.286;2023-01-08T01:15:58;8.60;99.90
5461;DHT22;2753;49.196;8.286;2023-01-08T01:18:25;8.60;99.90
5461;DHT22;2753;49.196;8.286;2023-01-08T01:20:50;8.60;99.90
5461;DHT22;2753;49.196;8.286;2023-01-08T01:23:16;8.60;99.90
5461;DHT22;2753;49.196;8.286;2023-01-08T01:25:42;8.60;99.90
5461;DHT22;2753;49.196;8.286;2023-01-08T01:28:07;8.60;99.90
5461;DHT22;2753;49.196;8.286;2023-01-08T01:30:33;8.60;99.90
5461;DHT22;2753;49.196;8.286;2023-01-08T01:32:59;8.60;99.90
5461;DHT22;2753;49.196;8.286;2023-01-08T01:35:24;8.60;99.90
5461;DHT22;2753;49.196;8.286;2023-01-08T01:37:50;8.60;99.90
5461;DHT22;2753;49.196;8.286;2023-01-08T01:40:15;8.60;99.90
5461;DHT22;2753;49.196;8.286;2023-01-08T01:42:41;8.60;99.90
5461;DHT22;2753;49.196;8.286;2023-01-08T01:45:23;8.60;99.90
5461;DHT22;2753;49.196;8.286;2023-01-08T01:48:01;8.70;99.90
5461;DHT22;2753;49.196;8.286;2023-01-08T01:50:29;8.70;99.90
5461;DHT22;2753;49.196;8.286;2023-01-08T01:53:08;8.70;99.90
5461;DHT22;2753;49.196;8.286;2023-01-08T01:55:38;8.70;99.90
5461;DHT22;2753;49.196;8.286;2023-01-08T01:58:15;8.60;99.90
5461;DHT22;2753;49.196;8.286;2023-01-08T02:00:43;8.70;99.90
5461;DHT22;2753;49.196;8.286;2023-01-08T02:03:13;8.60;99.90
5461;DHT22;2753;49.196;8.286;2023-01-08T02:11:16;8.70;99.90
5461;DHT22;2753;49.196;8.286;2023-01-08T02:13:50;8.70;99.90
5461;DHT22;2753;49.196;8.286;2023-01-08T02:16:23;8.70;99.90
5461;DHT22;2753;49.196;8.286;2023-01-08T02:19:10;8.70;99.90
5461;DHT22;2753;49.196;8.286;2023-01-08T02:22:36;8.70;99.90
5461;DHT22;2753;49.196;8.286;2023-01-08T02:25:05;8.70;99.90
5461;DHT22;2753;49.196;8.286;2023-01-08T02:27:33;8.70;99.90
5461;DHT22;2753;49.196;8.286;2023-01-08T02:30:01;8.70;99.90
5461;DHT22;2753;49.196;8.286;2023-01-08T02:32:32;8.70;99.90
5461;DHT22;2753;49.196;8.286;2023-01-08T02:34:58;8.70;99.90
5461;DHT22;2753;49.196;8.286;2023-01-08T02:37:24;8.70;99.90
5461;DHT22;2753;49.196;8.286;2023-01-08T02:40:09;8.70;99.90
5461;DHT22;2753;49.196;8.286;2023-01-08T02:50:39;8.70;99.90
5461;DHT22;2753;49.196;8.286;2023-01-08T02:53:22;8.60;99.90
5461;DHT22;2753;49.196;8.286;2023-01-08T02:55:52;8.60;99.90
5461;DHT22;2753;49.196;8.286;2023-01-08T02:58:20;8.60;99.90
5461;DHT22;2753;49.196;8.286;2023-01-08T03:00:48;8.60;99.90
5461;DHT22;2753;49.196;8.286;2023-01-08T03:03:17;8.60;99.90
5461;DHT22;2753;49.196;8.286;2023-01-08T03:05:47;8.70;99.90
5461;DHT22;2753;49.196;8.286;2023-01-08T03:08:18;8.70;99.90
5461;DHT22;2753;49.196;8.286;2023-01-08T03:10:48;8.70;99.90
5461;DHT22;2753;49.196;8.286;2023-01-08T03:13:22;8.60;99.90
5461;DHT22;2753;49.196;8.286;2023-01-08T03:15:54;8.60;99.90
5461;DHT22;2753;49.196;8.286;2023-01-08T03:18:31;8.60;99.90
5461;DHT22;2753;49.196;8.286;2023-01-08T03:21:00;8.60;99.90
5461;DHT22;2753;49.196;8.286;2023-01-08T03:23:28;8.60;99.90
5461;DHT22;2753;49.196;8.286;2023-01-08T03:25:58;8.60;99.90
5461;DHT22;2753;49.196;8.286;2023-01-08T03:28:29;8.60;99.90
5461;DHT22;2753;49.196;8.286;2023-01-08T03:30:58;8.60;99.90
5461;DHT22;2753;49.196;8.286;2023-01-08T03:33:27;8.60;99.90
5461;DHT22;2753;49.196;8.286;2023-01-08T03:35:55;8.50;99.90
5461;DHT22;2753;49.196;8.286;2023-01-08T03:38:30;8.60;99.90
5461;DHT22;2753;49.196;8.286;2023-01-08T03:41:05;8.60;99.90
5461;DHT22;2753;49.196;8.286;2023-01-08T03:43:31;8.60;99.90
5461;DHT22;2753;49.196;8.286;2023-01-08T03:46:00;8.60;99.90
5461;DHT22;2753;49.196;8.286;2023-01-08T03:48:29;8.60;99.90
5461;DHT22;2753;49.196;8.286;2023-01-08T03:50:55;8.60;99.90
5461;DHT22;2753;49.196;8.286;2023-01-08T03:53:21;8.60;99.90
5461;DHT22;2753;49.196;8.286;2023-01-08T03:55:46;8.60;99.90
5461;DHT22;2753;49.196;8.286;2023-01-08T03:58:12;8.60;99.90
5461;DHT22;2753;49.196;8.286;2023-01-08T04:00:38;8.50;99.90
5461;DHT22;2753;49.196;8.286;2023-01-08T04:03:04;8.50;99.90
5461;DHT22;2753;49.196;8.286;2023-01-08T04:05:29;8.50;99.90
5461;DHT22;2753;49.196;8.286;2023-01-08T04:07:56;8.50;99.90
5461;DHT22;2753;49.196;8.286;2023-01-08T04:10:23;8.60;99.90
5461;DHT22;2753;49.196;8.286;2023-01-08T04:12:49;8.60;99.90
5461;DHT22;2753;49.196;8.286;2023-01-08T04:15:15;8.50;99.90
5461;DHT22;2753;49.196;8.286;2023-01-08T04:17:41;8.50;99.90
5461;DHT22;2753;49.196;8.286;2023-01-08T04:20:07;8.50;99.90
5461;DHT22;2753;49.196;8.286;2023-01-08T04:22:33;8.60;99.90
5461;DHT22;2753;49.196;8.286;2023-01-08T04:24:58;8.60;99.90
5461;DHT22;2753;49.196;8.286;2023-01-08T04:27:24;8.60;99.90
5461;DHT22;2753;49.196;8.286;2023-01-08T04:29:50;8.60;99.90
5461;DHT22;2753;49.196;8.286;2023-01-08T04:32:15;8.60;99.90
5461;DHT22;2753;49.196;8.286;2023-01-08T04:34:41;8.60;99.90
5461;DHT22;2753;49.196;8.286;2023-01-08T04:37:07;8.60;99.90
5461;DHT22;2753;49.196;8.286;2023-01-08T04:39:32;8.60;99.90
5461;DHT22;2753;49.196;8.286;2023-01-08T04:41:58;8.60;99.90
5461;DHT22;2753;49.196;8.286;2023-01-08T04:44:24;8.60;99.90
5461;DHT22;2753;49.196;8.286;2023-01-08T04:46:49;8.60;99.90
5461;DHT22;2753;49.196;8.286;2023-01-08T04:49:15;8.60;99.90
5461;DHT22;2753;49.196;8.286;2023-01-08T04:51:41;8.60;99.90
5461;DHT22;2753;49.196;8.286;2023-01-08T04:54:06;8.60;99.90
5461;DHT22;2753;49.196;8.286;2023-01-08T04:56:32;8.60;99.90
5461;DHT22;2753;49.196;8.286;2023-01-08T04:59:00;8.60;99.90
5461;DHT22;2753;49.196;8.286;2023-01-08T05:01:27;8.60;99.90
5461;DHT22;2753;49.196;8.286;2023-01-08T05:03:54;8.50;99.90
5461;DHT22;2753;49.196;8.286;2023-01-08T05:06:20;8.50;99.90
5461;DHT22;2753;49.196;8.286;2023-01-08T05:08:46;8.50;99.90
5461;DHT22;2753;49.196;8.286;2023-01-08T05:11:11;8.50;99.90
5461;DHT22;2753;49.196;8.286;2023-01-08T05:13:37;8.50;99.90
5461;DHT22;2753;49.196;8.286;2023-01-08T05:16:03;8.50;99.90
5461;DHT22;2753;49.196;8.286;2023-01-08T05:18:29;8.50;99.90
5461;DHT22;2753;49.196;8.286;2023-01-08T05:21:01;8.50;99.90
5461;DHT22;2753;49.196;8.286;2023-01-08T05:23:28;8.50;99.90
5461;DHT22;2753;49.196;8.286;2023-01-08T05:26:02;8.50;99.90
5461;DHT22;2753;49.196;8.286;2023-01-08T05:28:29;8.40;99.90
5461;DHT22;2753;49.196;8.286;2023-01-08T05:30:55;8.40;99.90
5461;DHT22;2753;49.196;8.286;2023-01-08T05:33:21;8.50;99.90
5461;DHT22;2753;49.196;8.286;2023-01-08T05:35:47;8.40;99.90
5461;DHT22;2753;49.196;8.286;2023-01-08T05:38:12;8.40;99.90
5461;DHT22;2753;49.196;8.286;2023-01-08T05:40:38;8.40;99.90
5461;DHT22;2753;49.196;8.286;2023-01-08T05:43:04;8.30;99.90
5461;DHT22;2753;49.196;8.286;2023-01-08T05:45:31;8.30;99.90
5461;DHT22;2753;49.196;8.286;2023-01-08T05:47:56;8.30;99.90
5461;DHT22;2753;49.196;8.286;2023-01-08T05:50:22;8.30;99.90
5461;DHT22;2753;49.196;8.286;2023-01-08T05:52:48;8.30;99.90
5461;DHT22;2753;49.196;8.286;2023-01-08T05:55:14;8.30;99.90
5461;DHT22;2753;49.196;8.286;2023-01-08T05:57:39;8.30;99.90
5461;DHT22;2753;49.196;8.286;2023-01-08T06:00:07;8.30;99.90
5461;DHT22;2753;49.196;8.286;2023-01-08T06:02:34;8.30;99.90
5461;DHT22;2753;49.196;8.286;2023-01-08T06:05:00;8.30;99.90
5461;DHT22;2753;49.196;8.286;2023-01-08T06:07:29;8.30;99.90
5461;DHT22;2753;49.196;8.286;2023-01-08T06:09:55;8.30;99.90
5461;DHT22;2753;49.196;8.286;2023-01-08T06:12:20;8.30;99.90
5461;DHT22;2753;49.196;8.286;2023-01-08T06:14:46;8.40;99.90
5461;DHT22;2753;49.196;8.286;2023-01-08T06:17:12;8.40;99.90
5461;DHT22;2753;49.196;8.286;2023-01-08T06:19:37;8.40;99.90
5461;DHT22;2753;49.196;8.286;2023-01-08T06:22:06;8.40;99.90
5461;DHT22;2753;49.196;8.286;2023-01-08T06:24:31;8.40;99.90
5461;DHT22;2753;49.196;8.286;2023-01-08T06:26:57;8.40;99.90
5461;DHT22;2753;49.196;8.286;2023-01-08T06:29:23;8.40;99.90
5461;DHT22;2753;49.196;8.286;2023-01-08T06:31:49;8.40;99.90
5461;DHT22;2753;49.196;8.286;2023-01-08T06:34:14;8.40;99.90
5461;DHT22;2753;49.196;8.286;2023-01-08T06:36:40;8.40;99.90
5461;DHT22;2753;49.196;8.286;2023-01-08T06:39:06;8.40;99.90
5461;DHT22;2753;49.196;8.286;2023-01-08T06:41:32;8.40;99.90
5461;DHT22;2753;49.196;8.286;2023-01-08T06:43:58;8.40;99.90
5461;DHT22;2753;49.196;8.286;2023-01-08T06:46:23;8.40;99.90
5461;DHT22;2753;49.196;8.286;2023-01-08T06:48:49;8.40;99.90
5461;DHT22;2753;49.196;8.286;2023-01-08T06:51:15;8.40;99.90
5461;DHT22;2753;49.196;8.286;2023-01-08T06:53:40;8.40;99.90
5461;DHT22;2753;49.196;8.286;2023-01-08T06:56:06;8.40;99.90
5461;DHT22;2753;49.196;8.286;2023-01-08T06:58:36;8.50;99.90
5461;DHT22;2753;49.196;8.286;2023-01-08T07:01:02;8.50;99.90
5461;DHT22;2753;49.196;8.286;2023-01-08T07:03:28;8.50;99.90
5461;DHT22;2753;49.196;8.286;2023-01-08T07:05:55;8.40;99.90
5461;DHT22;2753;49.196;8.286;2023-01-08T07:08:21;8.40;99.90
5461;DHT22;2753;49.196;8.286;2023-01-08T07:10:46;8.50;99.90
5461;DHT22;2753;49.196;8.286;2023-01-08T07:13:12;8.50;99.90
5461;DHT22;2753;49.196;8.286;2023-01-08T07:15:39;8.50;99.90
5461;DHT22;2753;49.196;8.286;2023-01-08T07:18:06;8.50;99.90
5461;DHT22;2753;49.196;8.286;2023-01-08T07:20:33;8.40;99.90
5461;DHT22;2753;49.196;8.286;2023-01-08T07:23:04;8.50;99.90
5461;DHT22;2753;49.196;8.286;2023-01-08T07:25:31;8.50;99.90
5461;DHT22;2753;49.196;8.286;2023-01-08T07:27:57;8.40;99.90
5461;DHT22;2753;49.196;8.286;2023-01-08T07:30:23;8.50;99.90
5461;DHT22;2753;49.196;8.286;2023-01-08T07:32:49;8.50;99.90
5461;DHT22;2753;49.196;8.286;2023-01-08T07:35:15;8.50;99.90
5461;DHT22;2753;49.196;8.286;2023-01-08T07:37:41;8.40;99.90
5461;DHT22;2753;49.196;8.286;2023-01-08T07:40:09;8.40;99.90
5461;DHT22;2753;49.196;8.286;2023-01-08T07:42:35;8.40;99.90
5461;DHT22;2753;49.196;8.286;2023-01-08T07:45:01;8.40;99.90
5461;DHT22;2753;49.196;8.286;2023-01-08T07:47:26;8.40;99.90
5461;DHT22;2753;49.196;8.286;2023-01-08T07:49:52;8.40;99.90
5461;DHT22;2753;49.196;8.286;2023-01-08T07:52:18;8.50;99.90
5461;DHT22;2753;49.196;8.286;2023-01-08T07:54:43;8.40;99.90
5461;DHT22;2753;49.196;8.286;2023-01-08T07:57:09;8.50;99.90
5461;DHT22;2753;49.196;8.286;2023-01-08T07:59:35;8.40;99.90
5461;DHT22;2753;49.196;8.286;2023-01-08T08:02:00;8.50;99.90
5461;DHT22;2753;49.196;8.286;2023-01-08T08:04:26;8.50;99.90
5461;DHT22;2753;49.196;8.286;2023-01-08T08:06:53;8.50;99.90
5461;DHT22;2753;49.196;8.286;2023-01-08T08:09:19;8.50;99.90
5461;DHT22;2753;49.196;8.286;2023-01-08T08:11:44;8.50;99.90
5461;DHT22;2753;49.196;8.286;2023-01-08T08:14:10;8.50;99.90
5461;DHT22;2753;49.196;8.286;2023-01-08T08:16:36;8.50;99.90
5461;DHT22;2753;49.196;8.286;2023-01-08T08:19:01;8.50;99.90
5461;DHT22;2753;49.196;8.286;2023-01-08T08:21:29;8.50;99.90
5461;DHT22;2753;49.196;8.286;2023-01-08T08:23:55;8.50;99.90
5461;DHT22;2753;49.196;8.286;2023-01-08T08:26:22;8.50;99.90
5461;DHT22;2753;49.196;8.286;2023-01-08T08:28:48;8.50;99.90
5461;DHT22;2753;49.196;8.286;2023-01-08T08:31:14;8.60;99.90
5461;DHT22;2753;49.196;8.286;2023-01-08T08:33:40;8.60;99.90
5461;DHT22;2753;49.196;8.286;2023-01-08T08:36:06;8.50;99.90
5461;DHT22;2753;49.196;8.286;2023-01-08T08:38:32;8.60;99.90
5461;DHT22;2753;49.196;8.286;2023-01-08T08:40:57;8.60;99.90
5461;DHT22;2753;49.196;8.286;2023-01-08T08:43:23;8.60;99.90
5461;DHT22;2753;49.196;8.286;2023-01-08T08:45:49;8.60;99.90
5461;DHT22;2753;49.196;8.286;2023-01-08T08:48:14;8.60;99.90
5461;DHT22;2753;49.196;8.286;2023-01-08T08:50:42;8.60;99.90
5461;DHT22;2753;49.196;8.286;2023-01-08T08:53:09;8.60;99.90
5461;DHT22;2753;49.196;8.286;2023-01-08T08:55:34;8.60;99.90
5461;DHT22;2753;49.196;8.286;2023-01-08T08:58:09;8.60;99.90
5461;DHT22;2753;49.196;8.286;2023-01-08T09:00:39;8.60;99.90
5461;DHT22;2753;49.196;8.286;2023-01-08T09:03:04;8.60;99.90
5461;DHT22;2753;49.196;8.286;2023-01-08T09:05:30;8.60;99.90
5461;DHT22;2753;49.196;8.286;2023-01-08T09:07:56;8.50;99.90
5461;DHT22;2753;49.196;8.286;2023-01-08T09:10:22;8.60;99.90
5461;DHT22;2753;49.196;8.286;2023-01-08T09:12:48;8.60;99.90
5461;DHT22;2753;49.196;8.286;2023-01-08T09:15:14;8.60;99.90
5461;DHT22;2753;49.196;8.286;2023-01-08T09:17:39;8.60;99.90
5461;DHT22;2753;49.196;8.286;2023-01-08T09:20:05;8.60;99.90
5461;DHT22;2753;49.196;8.286;2023-01-08T09:22:31;8.60;99.90
5461;DHT22;2753;49.196;8.286;2023-01-08T09:24:57;8.60;99.90
5461;DHT22;2753;49.196;8.286;2023-01-08T09:27:23;8.70;99.90
5461;DHT22;2753;49.196;8.286;2023-01-08T09:29:48;8.70;99.90
5461;DHT22;2753;49.196;8.286;2023-01-08T09:32:14;8.60;99.90
5461;DHT22;2753;49.196;8.286;2023-01-08T09:34:40;8.80;99.90
5461;DHT22;2753;49.196;8.286;2023-01-08T09:37:05;8.70;99.90
5461;DHT22;2753;49.196;8.286;2023-01-08T09:39:31;8.70;99.90
5461;DHT22;2753;49.196;8.286;2023-01-08T09:42:01;8.70;99.90
5461;DHT22;2753;49.196;8.286;2023-01-08T09:44:31;8.70;99.90
5461;DHT22;2753;49.196;8.286;2023-01-08T09:46:59;8.70;99.90
5461;DHT22;2753;49.196;8.286;2023-01-08T09:49:42;8.70;99.90
5461;DHT22;2753;49.196;8.286;2023-01-08T09:52:13;8.80;99.90
5461;DHT22;2753;49.196;8.286;2023-01-08T09:54:39;8.80;99.90
5461;DHT22;2753;49.196;8.286;2023-01-08T09:57:12;8.80;99.90
5461;DHT22;2753;49.196;8.286;2023-01-08T09:59:40;8.80;99.90
5461;DHT22;2753;49.196;8.286;2023-01-08T10:02:16;8.80;99.90
5461;DHT22;2753;49.196;8.286;2023-01-08T10:04:43;8.80;99.90
5461;DHT22;2753;49.196;8.286;2023-01-08T10:09:40;8.80;99.90
5461;DHT22;2753;49.196;8.286;2023-01-08T10:12:06;8.80;99.90
5461;DHT22;2753;49.196;8.286;2023-01-08T10:14:36;8.80;99.90
5461;DHT22;2753;49.196;8.286;2023-01-08T10:17:04;8.90;99.90
5461;DHT22;2753;49.196;8.286;2023-01-08T10:19:32;8.90;99.90
5461;DHT22;2753;49.196;8.286;2023-01-08T10:21:59;8.90;99.90
5461;DHT22;2753;49.196;8.286;2023-01-08T10:24:34;8.90;99.90
5461;DHT22;2753;49.196;8.286;2023-01-08T10:27:10;8.90;99.90
5461;DHT22;2753;49.196;8.286;2023-01-08T10:29:36;9.00;99.90
5461;DHT22;2753;49.196;8.286;2023-01-08T10:32:26;9.00;99.90
5461;DHT22;2753;49.196;8.286;2023-01-08T10:34:55;9.00;99.90
5461;DHT22;2753;49.196;8.286;2023-01-08T10:37:31;9.10;99.90
5461;DHT22;2753;49.196;8.286;2023-01-08T10:42:47;9.20;99.90
5461;DHT22;2753;49.196;8.286;2023-01-08T10:45:21;9.20;99.90
5461;DHT22;2753;49.196;8.286;2023-01-08T10:47:50;9.30;99.90
5461;DHT22;2753;49.196;8.286;2023-01-08T10:50:29;9.30;99.90
5461;DHT22;2753;49.196;8.286;2023-01-08T10:53:00;9.30;99.90
5461;DHT22;2753;49.196;8.286;2023-01-08T10:55:28;9.30;99.90
5461;DHT22;2753;49.196;8.286;2023-01-08T11:00:35;9.50;99.90
5461;DHT22;2753;49.196;8.286;2023-01-08T11:03:05;9.50;99.90
5461;DHT22;2753;49.196;8.286;2023-01-08T11:05:36;9.60;99.90
5461;DHT22;2753;49.196;8.286;2023-01-08T11:08:06;9.70;99.90
5461;DHT22;2753;49.196;8.286;2023-01-08T11:10:34;9.80;99.90
5461;DHT22;2753;49.196;8.286;2023-01-08T11:13:04;9.80;99.90
5461;DHT22;2753;49.196;8.286;2023-01-08T11:15:33;9.90;99.90
5461;DHT22;2753;49.196;8.286;2023-01-08T11:20:44;10.00;99.90
5461;DHT22;2753;49.196;8.286;2023-01-08T11:23:24;10.10;99.90
5461;DHT22;2753;49.196;8.286;2023-01-08T11:26:13;10.20;99.90
5461;DHT22;2753;49.196;8.286;2023-01-08T11:28:58;10.20;99.90
5461;DHT22;2753;49.196;8.286;2023-01-08T11:31:52;10.20;99.90
5461;DHT22;2753;49.196;8.286;2023-01-08T11:34:35;10.30;99.90
5461;DHT22;2753;49.196;8.286;2023-01-08T11:39:36;10.30;99.90
5461;DHT22;2753;49.196;8.286;2023-01-08T11:44:45;10.30;99.90
5461;DHT22;2753;49.196;8.286;2023-01-08T11:50:08;10.30;99.90
5461;DHT22;2753;49.196;8.286;2023-01-08T11:58:04;10.20;99.90
5461;DHT22;2753;49.196;8.286;2023-01-08T12:09:12;10.40;99.90
5461;DHT22;2753;49.196;8.286;2023-01-08T12:11:50;10.40;99.90
5461;DHT22;2753;49.196;8.286;2023-01-08T12:14:42;10.40;99.90
5461;DHT22;2753;49.196;8.286;2023-01-08T12:20:28;10.40;99.90
5461;DHT22;2753;49.196;8.286;2023-01-08T12:28:39;10.30;99.90
5461;DHT22;2753;49.196;8.286;2023-01-08T12:33:55;10.30;99.90
5461;DHT22;2753;49.196;8.286;2023-01-08T12:36:26;10.30;99.90
5461;DHT22;2753;49.196;8.286;2023-01-08T12:39:02;10.30;99.90
5461;DHT22;2753;49.196;8.286;2023-01-08T12:41:31;10.30;99.90
5461;DHT22;2753;49.196;8.286;2023-01-08T12:46:30;10.30;99.90
5461;DHT22;2753;49.196;8.286;2023-01-08T12:48:57;10.30;99.90
5461;DHT22;2753;49.196;8.286;2023-01-08T12:59:48;10.30;99.90
5461;DHT22;2753;49.196;8.286;2023-01-08T13:02:34;10.30;99.90
5461;DHT22;2753;49.196;8.286;2023-01-08T13:07:44;10.30;99.90
5461;DHT22;2753;49.196;8.286;2023-01-08T13:18:36;10.30;99.90
5461;DHT22;2753;49.196;8.286;2023-01-08T13:21:04;10.30;99.90
5461;DHT22;2753;49.196;8.286;2023-01-08T13:23:32;10.30;99.90
5461;DHT22;2753;49.196;8.286;2023-01-08T13:26:04;10.30;99.90
5461;DHT22;2753;49.196;8.286;2023-01-08T13:28:50;10.30;99.90
5461;DHT22;2753;49.196;8.286;2023-01-08T13:33:49;10.30;99.90
5461;DHT22;2753;49.196;8.286;2023-01-08T13:36:35;10.30;99.90
5461;DHT22;2753;49.196;8.286;2023-01-08T13:41:44;10.30;99.90
5461;DHT22;2753;49.196;8.286;2023-01-08T13:44:26;10.30;99.90
5461;DHT22;2753;49.196;8.286;2023-01-08T13:46:57;10.30;99.90
5461;DHT22;2753;49.196;8.286;2023-01-08T13:49:26;10.30;99.90
5461;DHT22;2753;49.196;8.286;2023-01-08T13:51:52;10.30;99.90
5461;DHT22;2753;49.196;8.286;2023-01-08T13:54:32;10.40;99.90
5461;DHT22;2753;49.196;8.286;2023-01-08T13:57:12;10.40;99.90
5461;DHT22;2753;49.196;8.286;2023-01-08T13:59:48;10.40;99.90
5461;DHT22;2753;49.196;8.286;2023-01-08T14:02:28;10.40;99.90
5461;DHT22;2753;49.196;8.286;2023-01-08T14:04:55;10.50;99.90
5461;DHT22;2753;49.196;8.286;2023-01-08T14:07:22;10.50;99.90
5461;DHT22;2753;49.196;8.286;2023-01-08T14:09:48;10.50;99.90
5461;DHT22;2753;49.196;8.286;2023-01-08T14:12:19;10.50;99.90
5461;DHT22;2753;49.196;8.286;2023-01-08T14:14:55;10.40;99.90
5461;DHT22;2753;49.196;8.286;2023-01-08T14:17:30;10.50;99.90
5461;DHT22;2753;49.196;8.286;2023-01-08T14:19:57;10.50;99.90
5461;DHT22;2753;49.196;8.286;2023-01-08T14:22:34;10.50;99.90
5461;DHT22;2753;49.196;8.286;2023-01-08T14:25:03;10.40;99.90
5461;DHT22;2753;49.196;8.286;2023-01-08T14:27:30;10.40;99.90
5461;DHT22;2753;49.196;8.286;2023-01-08T14:29:57;10.40;99.90
5461;DHT22;2753;49.196;8.286;2023-01-08T14:32:24;10.40;99.90
5461;DHT22;2753;49.196;8.286;2023-01-08T14:34:52;10.30;99.90
5461;DHT22;2753;49.196;8.286;2023-01-08T14:37:18;10.30;99.90
5461;DHT22;2753;49.196;8.286;2023-01-08T14:39:45;10.30;99.90
5461;DHT22;2753;49.196;8.286;2023-01-08T14:42:28;10.30;99.90
5461;DHT22;2753;49.196;8.286;2023-01-08T14:45:31;10.30;99.90
5461;DHT22;2753;49.196;8.286;2023-01-08T14:48:22;10.30;99.90
5461;DHT22;2753;49.196;8.286;2023-01-08T14:51:10;10.30;99.90
5461;DHT22;2753;49.196;8.286;2023-01-08T14:53:42;10.40;99.90
5461;DHT22;2753;49.196;8.286;2023-01-08T14:56:19;10.30;99.90
5461;DHT22;2753;49.196;8.286;2023-01-08T14:58:46;10.30;99.90
5461;DHT22;2753;49.196;8.286;2023-01-08T15:01:16;10.30;99.90
5461;DHT22;2753;49.196;8.286;2023-01-08T15:03:47;10.30;99.90
5461;DHT22;2753;49.196;8.286;2023-01-08T15:06:30;10.20;99.90
5461;DHT22;2753;49.196;8.286;2023-01-08T15:08:57;10.20;99.90
5461;DHT22;2753;49.196;8.286;2023-01-08T15:11:29;10.20;99.90
5461;DHT22;2753;49.196;8.286;2023-01-08T15:13:57;10.20;99.90
5461;DHT22;2753;49.196;8.286;2023-01-08T15:16:36;10.10;99.90
5461;DHT22;2753;49.196;8.286;2023-01-08T15:19:10;10.10;99.90
5461;DHT22;2753;49.196;8.286;2023-01-08T15:21:39;10.10;99.90
5461;DHT22;2753;49.196;8.286;2023-01-08T15:29:45;10.00;99.90
5461;DHT22;2753;49.196;8.286;2023-01-08T15:34:41;10.00;99.90
5461;DHT22;2753;49.196;8.286;2023-01-08T15:37:07;9.90;99.90
5461;DHT22;2753;49.196;8.286;2023-01-08T15:39:32;10.00;99.90
5461;DHT22;2753;49.196;8.286;2023-01-08T15:42:19;9.90;99.90
5461;DHT22;2753;49.196;8.286;2023-01-08T15:45:09;10.00;99.90
5461;DHT22;2753;49.196;8.286;2023-01-08T15:47:59;10.00;99.90
5461;DHT22;2753;49.196;8.286;2023-01-08T15:50:28;10.00;99.90
5461;DHT22;2753;49.196;8.286;2023-01-08T15:53:06;10.00;99.90
5461;DHT22;2753;49.196;8.286;2023-01-08T15:55:34;9.90;99.90
5461;DHT22;2753;49.196;8.286;2023-01-08T15:58:01;9.90;99.90
5461;DHT22;2753;49.196;8.286;2023-01-08T16:00:27;9.90;99.90
5461;DHT22;2753;49.196;8.286;2023-01-08T16:02:53;9.90;99.90
5461;DHT22;2753;49.196;8.286;2023-01-08T16:05:22;9.80;99.90
5461;DHT22;2753;49.196;8.286;2023-01-08T16:07:48;9.80;99.90
5461;DHT22;2753;49.196;8.286;2023-01-08T16:10:15;9.80;99.90
5461;DHT22;2753;49.196;8.286;2023-01-08T16:12:43;9.80;99.90
5461;DHT22;2753;49.196;8.286;2023-01-08T16:15:11;9.80;99.90
5461;DHT22;2753;49.196;8.286;2023-01-08T16:17:37;9.80;99.90
5461;DHT22;2753;49.196;8.286;2023-01-08T16:20:04;9.80;99.90
5461;DHT22;2753;49.196;8.286;2023-01-08T16:22:30;9.70;99.90
5461;DHT22;2753;49.196;8.286;2023-01-08T16:24:56;9.70;99.90
5461;DHT22;2753;49.196;8.286;2023-01-08T16:27:22;9.60;99.90
5461;DHT22;2753;49.196;8.286;2023-01-08T16:29:48;9.60;99.90
5461;DHT22;2753;49.196;8.286;2023-01-08T16:32:13;9.60;99.90
5461;DHT22;2753;49.196;8.286;2023-01-08T16:34:39;9.60;99.90
5461;DHT22;2753;49.196;8.286;2023-01-08T16:37:05;9.50;99.90
5461;DHT22;2753;49.196;8.286;2023-01-08T16:39:31;9.50;99.90
5461;DHT22;2753;49.196;8.286;2023-01-08T16:41:57;9.50;99.90
5461;DHT22;2753;49.196;8.286;2023-01-08T16:44:24;9.50;99.90
5461;DHT22;2753;49.196;8.286;2023-01-08T16:46:53;9.50;99.90
5461;DHT22;2753;49.196;8.286;2023-01-08T16:49:19;9.50;99.90
5461;DHT22;2753;49.196;8.286;2023-01-08T16:51:45;9.50;99.90
5461;DHT22;2753;49.196;8.286;2023-01-08T16:54:14;9.50;99.90
5461;DHT22;2753;49.196;8.286;2023-01-08T16:56:40;9.50;99.90
5461;DHT22;2753;49.196;8.286;2023-01-08T16:59:06;9.50;99.90
5461;DHT22;2753;49.196;8.286;2023-01-08T17:01:32;9.50;99.90
5461;DHT22;2753;49.196;8.286;2023-01-08T17:03:58;9.50;99.90
5461;DHT22;2753;49.196;8.286;2023-01-08T17:06:24;9.50;99.90
5461;DHT22;2753;49.196;8.286;2023-01-08T17:08:50;9.50;99.90
5461;DHT22;2753;49.196;8.286;2023-01-08T17:11:18;9.50;99.90
5461;DHT22;2753;49.196;8.286;2023-01-08T17:13:44;9.40;99.90
5461;DHT22;2753;49.196;8.286;2023-01-08T17:16:12;9.40;99.90
5461;DHT22;2753;49.196;8.286;2023-01-08T17:18:39;9.40;99.90
5461;DHT22;2753;49.196;8.286;2023-01-08T17:21:06;9.40;99.90
5461;DHT22;2753;49.196;8.286;2023-01-08T17:23:32;9.40;99.90
5461;DHT22;2753;49.196;8.286;2023-01-08T17:26:00;9.40;99.90
5461;DHT22;2753;49.196;8.286;2023-01-08T17:28:29;9.40;99.90
5461;DHT22;2753;49.196;8.286;2023-01-08T17:31:02;9.40;99.90
5461;DHT22;2753;49.196;8.286;2023-01-08T17:33:29;9.40;99.90
5461;DHT22;2753;49.196;8.286;2023-01-08T17:35:54;9.30;99.90
5461;DHT22;2753;49.196;8.286;2023-01-08T17:38:20;9.40;99.90
5461;DHT22;2753;49.196;8.286;2023-01-08T17:40:46;9.40;99.90
5461;DHT22;2753;49.196;8.286;2023-01-08T17:43:11;9.40;99.90
5461;DHT22;2753;49.196;8.286;2023-01-08T17:45:38;9.40;99.90
5461;DHT22;2753;49.196;8.286;2023-01-08T17:48:04;9.30;99.90
5461;DHT22;2753;49.196;8.286;2023-01-08T17:50:30;9.30;99.90
5461;DHT22;2753;49.196;8.286;2023-01-08T17:52:56;9.30;99.90
5461;DHT22;2753;49.196;8.286;2023-01-08T17:55:23;9.30;99.90
5461;DHT22;2753;49.196;8.286;2023-01-08T17:57:49;9.30;99.90
5461;DHT22;2753;49.196;8.286;2023-01-08T18:00:16;9.20;99.90